Addis, Louisiana
Current Conditions -  °F | °C
As of 2:53 PM on Sunday 23 Nov 2014 (Local Time) from KBTR Reporting Station
Broken Clouds Broken Clouds  
Wind Chill: 24°   Ceiling: 3000
Heat Index: 24°   Visibility: 10mi
Dew Point: 14°   Wind: 20mph
Humidity: 53%   Direction: 220°SW
Pressure: 29.59"   Gusts: 29mph
Location:  30.35°N, 91.27°W
Report Text: KBTR 232053Z 22017G25KT 10SM BKN030 24/14 A2959 RMK AO2 PK WND 22028/2043 SLP019 T02390139 55006 $
Loading
Personal Weather Stations






























Interactive Weather Map New forecast layout! Learn more

10-Day Weather Forecast

Advertisements
Track Severe Weather on mobile